sensor_id;sensor_type;location;lat;lon;timestamp;P1;durP1;ratioP1;P2;durP2;ratioP2
34828;SDS011;21042;47.620;12.188;2022-08-19T00:01:32;9.02;;;6.03;;
34828;SDS011;21042;47.620;12.188;2022-08-19T00:04:04;11.02;;;6.82;;
34828;SDS011;21042;47.620;12.188;2022-08-19T00:06:34;10.80;;;6.57;;
34828;SDS011;21042;47.620;12.188;2022-08-19T00:09:04;12.55;;;7.00;;
34828;SDS011;21042;47.620;12.188;2022-08-19T00:11:32;9.38;;;6.32;;
34828;SDS011;21042;47.620;12.188;2022-08-19T00:14:00;9.07;;;6.68;;
34828;SDS011;21042;47.620;12.188;2022-08-19T00:16:27;9.10;;;6.28;;
34828;SDS011;21042;47.620;12.188;2022-08-19T00:18:54;8.15;;;6.65;;
34828;SDS011;21042;47.620;12.188;2022-08-19T00:23:49;10.50;;;7.00;;
34828;SDS011;21042;47.620;12.188;2022-08-19T00:26:16;10.38;;;6.65;;
34828;SDS011;21042;47.620;12.188;2022-08-19T00:28:43;11.80;;;6.55;;
34828;SDS011;21042;47.620;12.188;2022-08-19T00:31:10;11.65;;;7.70;;
34828;SDS011;21042;47.620;12.188;2022-08-19T00:33:37;9.27;;;6.72;;
34828;SDS011;21042;47.620;12.188;2022-08-19T00:36:05;10.95;;;6.75;;
34828;SDS011;21042;47.620;12.188;2022-08-19T00:38:34;9.88;;;7.13;;
34828;SDS011;21042;47.620;12.188;2022-08-19T00:41:04;10.30;;;6.43;;
34828;SDS011;21042;47.620;12.188;2022-08-19T00:43:31;10.93;;;6.90;;
34828;SDS011;21042;47.620;12.188;2022-08-19T00:45:59;9.48;;;6.78;;
34828;SDS011;21042;47.620;12.188;2022-08-19T00:48:25;8.25;;;6.32;;
34828;SDS011;21042;47.620;12.188;2022-08-19T00:50:52;9.82;;;6.72;;
34828;SDS011;21042;47.620;12.188;2022-08-19T00:53:23;9.20;;;6.20;;
34828;SDS011;21042;47.620;12.188;2022-08-19T00:55:53;11.38;;;6.45;;
34828;SDS011;21042;47.620;12.188;2022-08-19T00:58:24;11.93;;;6.85;;
34828;SDS011;21042;47.620;12.188;2022-08-19T01:00:55;11.25;;;6.35;;
34828;SDS011;21042;47.620;12.188;2022-08-19T01:03:22;8.75;;;6.32;;
34828;SDS011;21042;47.620;12.188;2022-08-19T01:05:49;8.38;;;5.95;;
34828;SDS011;21042;47.620;12.188;2022-08-19T01:08:18;16.25;;;6.80;;
34828;SDS011;21042;47.620;12.188;2022-08-19T01:10:53;10.30;;;6.20;;
34828;SDS011;21042;47.620;12.188;2022-08-19T01:13:29;8.57;;;5.70;;
34828;SDS011;21042;47.620;12.188;2022-08-19T01:16:15;10.10;;;6.50;;
34828;SDS011;21042;47.620;12.188;2022-08-19T01:18:44;10.32;;;6.43;;
34828;SDS011;21042;47.620;12.188;2022-08-19T01:21:26;11.57;;;6.35;;
34828;SDS011;21042;47.620;12.188;2022-08-19T01:23:58;9.02;;;6.38;;
34828;SDS011;21042;47.620;12.188;2022-08-19T01:26:26;10.60;;;6.68;;
34828;SDS011;21042;47.620;12.188;2022-08-19T01:28:57;11.20;;;6.07;;
34828;SDS011;21042;47.620;12.188;2022-08-19T01:31:27;8.75;;;6.20;;
34828;SDS011;21042;47.620;12.188;2022-08-19T01:33:58;10.10;;;6.82;;
34828;SDS011;21042;47.620;12.188;2022-08-19T01:36:30;12.35;;;6.20;;
34828;SDS011;21042;47.620;12.188;2022-08-19T01:39:00;10.52;;;6.18;;
34828;SDS011;21042;47.620;12.188;2022-08-19T01:41:29;12.75;;;6.43;;
34828;SDS011;21042;47.620;12.188;2022-08-19T01:43:56;8.82;;;5.82;;
34828;SDS011;21042;47.620;12.188;2022-08-19T01:46:43;10.13;;;6.55;;
34828;SDS011;21042;47.620;12.188;2022-08-19T01:49:10;8.40;;;5.82;;
34828;SDS011;21042;47.620;12.188;2022-08-19T01:51:37;10.30;;;6.55;;
34828;SDS011;21042;47.620;12.188;2022-08-19T01:54:06;9.75;;;6.28;;
34828;SDS011;21042;47.620;12.188;2022-08-19T01:56:34;10.15;;;6.72;;
34828;SDS011;21042;47.620;12.188;2022-08-19T01:59:02;9.52;;;6.40;;
34828;SDS011;21042;47.620;12.188;2022-08-19T02:01:33;8.82;;;6.57;;
34828;SDS011;21042;47.620;12.188;2022-08-19T02:04:01;8.90;;;6.30;;
34828;SDS011;21042;47.620;12.188;2022-08-19T02:06:28;9.63;;;6.55;;
34828;SDS011;21042;47.620;12.188;2022-08-19T02:08:55;7.50;;;6.00;;
34828;SDS011;21042;47.620;12.188;2022-08-19T02:13:53;10.15;;;6.10;;
34828;SDS011;21042;47.620;12.188;2022-08-19T02:16:20;11.65;;;6.60;;
34828;SDS011;21042;47.620;12.188;2022-08-19T02:18:47;11.32;;;6.88;;
34828;SDS011;21042;47.620;12.188;2022-08-19T02:21:15;9.10;;;6.53;;
34828;SDS011;21042;47.620;12.188;2022-08-19T02:23:43;8.30;;;5.97;;
34828;SDS011;21042;47.620;12.188;2022-08-19T02:26:10;8.50;;;5.80;;
34828;SDS011;21042;47.620;12.188;2022-08-19T02:28:38;8.68;;;6.60;;
34828;SDS011;21042;47.620;12.188;2022-08-19T02:31:11;11.75;;;7.13;;
34828;SDS011;21042;47.620;12.188;2022-08-19T02:33:41;9.75;;;7.18;;
34828;SDS011;21042;47.620;12.188;2022-08-19T02:36:08;10.50;;;6.78;;
34828;SDS011;21042;47.620;12.188;2022-08-19T02:38:36;9.23;;;6.45;;
34828;SDS011;21042;47.620;12.188;2022-08-19T02:41:06;12.88;;;7.30;;
34828;SDS011;21042;47.620;12.188;2022-08-19T02:43:54;7.00;;;5.32;;
34828;SDS011;21042;47.620;12.188;2022-08-19T02:46:44;11.02;;;6.35;;
34828;SDS011;21042;47.620;12.188;2022-08-19T02:49:12;8.27;;;7.00;;
34828;SDS011;21042;47.620;12.188;2022-08-19T02:51:43;10.05;;;6.68;;
34828;SDS011;21042;47.620;12.188;2022-08-19T02:54:11;12.25;;;8.02;;
34828;SDS011;21042;47.620;12.188;2022-08-19T02:56:40;12.80;;;8.15;;
34828;SDS011;21042;47.620;12.188;2022-08-19T02:59:09;16.80;;;7.78;;
34828;SDS011;21042;47.620;12.188;2022-08-19T03:01:37;10.98;;;7.35;;
34828;SDS011;21042;47.620;12.188;2022-08-19T03:04:06;11.80;;;7.68;;
34828;SDS011;21042;47.620;12.188;2022-08-19T03:06:35;12.77;;;8.40;;
34828;SDS011;21042;47.620;12.188;2022-08-19T03:09:03;16.33;;;8.60;;
34828;SDS011;21042;47.620;12.188;2022-08-19T03:11:31;11.88;;;8.25;;
34828;SDS011;21042;47.620;12.188;2022-08-19T03:13:58;11.50;;;8.10;;
34828;SDS011;21042;47.620;12.188;2022-08-19T03:16:27;11.20;;;7.70;;
34828;SDS011;21042;47.620;12.188;2022-08-19T03:18:59;11.38;;;7.38;;
34828;SDS011;21042;47.620;12.188;2022-08-19T03:21:27;13.40;;;7.68;;
34828;SDS011;21042;47.620;12.188;2022-08-19T03:23:56;13.88;;;8.23;;
34828;SDS011;21042;47.620;12.188;2022-08-19T03:26:25;10.88;;;7.68;;
34828;SDS011;21042;47.620;12.188;2022-08-19T03:28:51;12.00;;;8.07;;
34828;SDS011;21042;47.620;12.188;2022-08-19T03:31:24;13.35;;;7.80;;
34828;SDS011;21042;47.620;12.188;2022-08-19T03:34:15;12.48;;;7.90;;
34828;SDS011;21042;47.620;12.188;2022-08-19T03:36:44;13.98;;;8.93;;
34828;SDS011;21042;47.620;12.188;2022-08-19T03:39:12;11.63;;;8.52;;
34828;SDS011;21042;47.620;12.188;2022-08-19T03:41:42;15.02;;;8.43;;
34828;SDS011;21042;47.620;12.188;2022-08-19T03:44:14;16.95;;;9.15;;
34828;SDS011;21042;47.620;12.188;2022-08-19T03:46:45;14.80;;;9.18;;
34828;SDS011;21042;47.620;12.188;2022-08-19T03:49:13;13.13;;;8.70;;
34828;SDS011;21042;47.620;12.188;2022-08-19T03:51:40;16.00;;;8.88;;
34828;SDS011;21042;47.620;12.188;2022-08-19T03:54:10;15.23;;;9.45;;
34828;SDS011;21042;47.620;12.188;2022-08-19T03:56:40;14.95;;;9.32;;
34828;SDS011;21042;47.620;12.188;2022-08-19T03:59:09;11.02;;;8.35;;
34828;SDS011;21042;47.620;12.188;2022-08-19T04:01:39;15.18;;;9.35;;
34828;SDS011;21042;47.620;12.188;2022-08-19T04:04:07;17.65;;;10.13;;
34828;SDS011;21042;47.620;12.188;2022-08-19T04:06:35;13.75;;;9.45;;
34828;SDS011;21042;47.620;12.188;2022-08-19T04:09:06;14.82;;;9.35;;
34828;SDS011;21042;47.620;12.188;2022-08-19T04:11:46;18.92;;;10.02;;
34828;SDS011;21042;47.620;12.188;2022-08-19T04:14:17;15.55;;;9.88;;
34828;SDS011;21042;47.620;12.188;2022-08-19T04:16:45;15.85;;;9.57;;
34828;SDS011;21042;47.620;12.188;2022-08-19T04:19:13;16.77;;;10.23;;
34828;SDS011;21042;47.620;12.188;2022-08-19T04:21:45;16.67;;;9.82;;
34828;SDS011;21042;47.620;12.188;2022-08-19T04:24:14;17.65;;;10.38;;
34828;SDS011;21042;47.620;12.188;2022-08-19T04:26:41;12.45;;;9.38;;
34828;SDS011;21042;47.620;12.188;2022-08-19T04:29:16;17.30;;;10.48;;
34828;SDS011;21042;47.620;12.188;2022-08-19T04:31:47;14.95;;;10.07;;
34828;SDS011;21042;47.620;12.188;2022-08-19T04:34:15;15.98;;;9.40;;
34828;SDS011;21042;47.620;12.188;2022-08-19T04:36:45;15.30;;;9.23;;
34828;SDS011;21042;47.620;12.188;2022-08-19T04:39:14;14.32;;;9.38;;
34828;SDS011;21042;47.620;12.188;2022-08-19T04:41:42;16.83;;;9.45;;
34828;SDS011;21042;47.620;12.188;2022-08-19T04:44:36;14.68;;;9.35;;
34828;SDS011;21042;47.620;12.188;2022-08-19T04:47:11;15.60;;;9.63;;
34828;SDS011;21042;47.620;12.188;2022-08-19T04:49:38;15.02;;;9.13;;
34828;SDS011;21042;47.620;12.188;2022-08-19T04:52:05;12.88;;;9.43;;
34828;SDS011;21042;47.620;12.188;2022-08-19T04:54:32;13.63;;;8.95;;
34828;SDS011;21042;47.620;12.188;2022-08-19T04:57:04;15.23;;;9.52;;
34828;SDS011;21042;47.620;12.188;2022-08-19T04:59:36;12.57;;;8.40;;
34828;SDS011;21042;47.620;12.188;2022-08-19T05:02:04;12.88;;;8.77;;
34828;SDS011;21042;47.620;12.188;2022-08-19T05:04:32;13.90;;;8.40;;
34828;SDS011;21042;47.620;12.188;2022-08-19T05:06:59;12.23;;;7.70;;
34828;SDS011;21042;47.620;12.188;2022-08-19T05:09:28;12.10;;;8.30;;
34828;SDS011;21042;47.620;12.188;2022-08-19T05:12:16;11.45;;;8.45;;
34828;SDS011;21042;47.620;12.188;2022-08-19T05:14:43;14.68;;;7.97;;
34828;SDS011;21042;47.620;12.188;2022-08-19T05:17:11;11.52;;;8.63;;
34828;SDS011;21042;47.620;12.188;2022-08-19T05:19:53;12.02;;;8.82;;
34828;SDS011;21042;47.620;12.188;2022-08-19T05:22:39;14.45;;;9.32;;
34828;SDS011;21042;47.620;12.188;2022-08-19T05:25:09;12.88;;;9.48;;
34828;SDS011;21042;47.620;12.188;2022-08-19T05:27:44;20.90;;;10.27;;
34828;SDS011;21042;47.620;12.188;2022-08-19T05:32:39;19.17;;;11.27;;
34828;SDS011;21042;47.620;12.188;2022-08-19T05:35:06;21.55;;;9.75;;
34828;SDS011;21042;47.620;12.188;2022-08-19T05:37:33;15.73;;;9.18;;
34828;SDS011;21042;47.620;12.188;2022-08-19T05:40:00;13.20;;;9.52;;
34828;SDS011;21042;47.620;12.188;2022-08-19T05:44:54;16.60;;;10.15;;
34828;SDS011;21042;47.620;12.188;2022-08-19T05:47:22;17.70;;;10.88;;
34828;SDS011;21042;47.620;12.188;2022-08-19T05:49:49;17.83;;;10.82;;
34828;SDS011;21042;47.620;12.188;2022-08-19T05:52:17;21.05;;;11.20;;
34828;SDS011;21042;47.620;12.188;2022-08-19T05:54:51;22.65;;;13.00;;
34828;SDS011;21042;47.620;12.188;2022-08-19T05:57:20;19.88;;;11.20;;
34828;SDS011;21042;47.620;12.188;2022-08-19T05:59:47;20.00;;;11.85;;
34828;SDS011;21042;47.620;12.188;2022-08-19T06:02:23;19.50;;;11.32;;
34828;SDS011;21042;47.620;12.188;2022-08-19T06:04:57;20.23;;;12.40;;
34828;SDS011;21042;47.620;12.188;2022-08-19T06:07:24;22.83;;;13.02;;
34828;SDS011;21042;47.620;12.188;2022-08-19T06:09:51;20.60;;;12.63;;
34828;SDS011;21042;47.620;12.188;2022-08-19T06:12:29;20.88;;;12.68;;
34828;SDS011;21042;47.620;12.188;2022-08-19T06:15:03;23.92;;;12.50;;
34828;SDS011;21042;47.620;12.188;2022-08-19T06:17:35;24.88;;;13.52;;
34828;SDS011;21042;47.620;12.188;2022-08-19T06:20:03;22.73;;;13.32;;
34828;SDS011;21042;47.620;12.188;2022-08-19T06:22:31;27.17;;;14.20;;
34828;SDS011;21042;47.620;12.188;2022-08-19T06:25:12;26.70;;;13.98;;
34828;SDS011;21042;47.620;12.188;2022-08-19T06:27:40;19.83;;;13.20;;
34828;SDS011;21042;47.620;12.188;2022-08-19T06:30:27;21.10;;;13.73;;
34828;SDS011;21042;47.620;12.188;2022-08-19T06:32:54;22.38;;;13.60;;
34828;SDS011;21042;47.620;12.188;2022-08-19T06:35:21;25.35;;;14.57;;
34828;SDS011;21042;47.620;12.188;2022-08-19T06:37:48;31.60;;;16.35;;
34828;SDS011;21042;47.620;12.188;2022-08-19T06:40:14;31.25;;;15.70;;
34828;SDS011;21042;47.620;12.188;2022-08-19T06:42:41;25.73;;;14.82;;
34828;SDS011;21042;47.620;12.188;2022-08-19T06:45:20;22.42;;;14.10;;
34828;SDS011;21042;47.620;12.188;2022-08-19T06:51:36;18.17;;;11.50;;
34828;SDS011;21042;47.620;12.188;2022-08-19T06:54:09;15.75;;;9.93;;
34828;SDS011;21042;47.620;12.188;2022-08-19T06:56:44;14.40;;;10.00;;
34828;SDS011;21042;47.620;12.188;2022-08-19T06:59:13;16.05;;;9.80;;
34828;SDS011;21042;47.620;12.188;2022-08-19T07:01:43;11.40;;;7.32;;
34828;SDS011;21042;47.620;12.188;2022-08-19T07:04:15;7.10;;;5.38;;
34828;SDS011;21042;47.620;12.188;2022-08-19T07:06:48;7.95;;;5.13;;
34828;SDS011;21042;47.620;12.188;2022-08-19T07:09:20;8.82;;;5.70;;
34828;SDS011;21042;47.620;12.188;2022-08-19T07:11:48;9.85;;;6.45;;
34828;SDS011;21042;47.620;12.188;2022-08-19T07:14:18;8.50;;;5.75;;
34828;SDS011;21042;47.620;12.188;2022-08-19T07:16:48;9.10;;;5.85;;
34828;SDS011;21042;47.620;12.188;2022-08-19T07:19:18;8.20;;;5.00;;
34828;SDS011;21042;47.620;12.188;2022-08-19T07:21:46;7.75;;;5.50;;
34828;SDS011;21042;47.620;12.188;2022-08-19T07:24:16;6.85;;;4.70;;
34828;SDS011;21042;47.620;12.188;2022-08-19T07:26:43;8.10;;;4.55;;
34828;SDS011;21042;47.620;12.188;2022-08-19T07:29:11;7.13;;;5.32;;
34828;SDS011;21042;47.620;12.188;2022-08-19T07:31:39;16.77;;;5.65;;
34828;SDS011;21042;47.620;12.188;2022-08-19T07:34:09;8.07;;;5.40;;
34828;SDS011;21042;47.620;12.188;2022-08-19T07:36:39;8.52;;;5.22;;
34828;SDS011;21042;47.620;12.188;2022-08-19T07:39:10;9.73;;;5.00;;
34828;SDS011;21042;47.620;12.188;2022-08-19T07:41:42;9.35;;;4.65;;
34828;SDS011;21042;47.620;12.188;2022-08-19T07:44:10;8.43;;;5.40;;
34828;SDS011;21042;47.620;12.188;2022-08-19T07:46:38;7.75;;;4.30;;
34828;SDS011;21042;47.620;12.188;2022-08-19T07:49:07;5.85;;;4.22;;
34828;SDS011;21042;47.620;12.188;2022-08-19T07:51:39;5.93;;;4.07;;
34828;SDS011;21042;47.620;12.188;2022-08-19T07:54:06;5.57;;;4.07;;
34828;SDS011;21042;47.620;12.188;2022-08-19T07:56:32;9.43;;;4.57;;
34828;SDS011;21042;47.620;12.188;2022-08-19T07:58:59;5.57;;;4.22;;
34828;SDS011;21042;47.620;12.188;2022-08-19T08:01:26;6.90;;;4.93;;
34828;SDS011;21042;47.620;12.188;2022-08-19T08:03:55;6.80;;;4.70;;
34828;SDS011;21042;47.620;12.188;2022-08-19T08:06:41;10.40;;;5.13;;
34828;SDS011;21042;47.620;12.188;2022-08-19T08:09:29;6.00;;;4.10;;
34828;SDS011;21042;47.620;12.188;2022-08-19T08:12:00;7.15;;;4.65;;
34828;SDS011;21042;47.620;12.188;2022-08-19T08:14:53;9.65;;;5.60;;
34828;SDS011;21042;47.620;12.188;2022-08-19T08:17:22;8.65;;;5.50;;
34828;SDS011;21042;47.620;12.188;2022-08-19T08:20:11;6.93;;;4.82;;
34828;SDS011;21042;47.620;12.188;2022-08-19T08:22:43;10.02;;;5.05;;
34828;SDS011;21042;47.620;12.188;2022-08-19T08:25:29;7.32;;;4.55;;
34828;SDS011;21042;47.620;12.188;2022-08-19T08:27:57;6.85;;;4.72;;
34828;SDS011;21042;47.620;12.188;2022-08-19T08:30:26;12.63;;;4.97;;
34828;SDS011;21042;47.620;12.188;2022-08-19T08:32:58;6.72;;;4.85;;
34828;SDS011;21042;47.620;12.188;2022-08-19T08:35:27;6.55;;;5.40;;
34828;SDS011;21042;47.620;12.188;2022-08-19T08:37:54;7.57;;;4.65;;
34828;SDS011;21042;47.620;12.188;2022-08-19T08:45:37;9.95;;;5.30;;
34828;SDS011;21042;47.620;12.188;2022-08-19T08:48:24;7.00;;;5.10;;
34828;SDS011;21042;47.620;12.188;2022-08-19T08:51:02;9.02;;;5.10;;
34828;SDS011;21042;47.620;12.188;2022-08-19T08:53:34;7.40;;;5.50;;
34828;SDS011;21042;47.620;12.188;2022-08-19T08:56:07;7.38;;;4.63;;
34828;SDS011;21042;47.620;12.188;2022-08-19T09:01:11;7.07;;;4.18;;
34828;SDS011;21042;47.620;12.188;2022-08-19T09:03:39;5.00;;;3.88;;
34828;SDS011;21042;47.620;12.188;2022-08-19T09:08:55;7.43;;;3.70;;
34828;SDS011;21042;47.620;12.188;2022-08-19T09:17:17;4.78;;;3.20;;
34828;SDS011;21042;47.620;12.188;2022-08-19T09:20:12;5.55;;;3.20;;
34828;SDS011;21042;47.620;12.188;2022-08-19T09:22:47;6.00;;;3.95;;
34828;SDS011;21042;47.620;12.188;2022-08-19T09:25:16;5.63;;;4.00;;
34828;SDS011;21042;47.620;12.188;2022-08-19T09:27:55;4.25;;;3.85;;
34828;SDS011;21042;47.620;12.188;2022-08-19T09:30:30;4.95;;;4.32;;
34828;SDS011;21042;47.620;12.188;2022-08-19T09:32:58;5.30;;;4.40;;
34828;SDS011;21042;47.620;12.188;2022-08-19T09:35:26;7.68;;;3.83;;
34828;SDS011;21042;47.620;12.188;2022-08-19T09:37:56;6.05;;;3.50;;
34828;SDS011;21042;47.620;12.188;2022-08-19T09:40:28;5.57;;;4.20;;
34828;SDS011;21042;47.620;12.188;2022-08-19T09:43:03;5.30;;;4.50;;
34828;SDS011;21042;47.620;12.188;2022-08-19T09:45:38;5.93;;;4.85;;
34828;SDS011;21042;47.620;12.188;2022-08-19T09:48:05;5.03;;;4.50;;
34828;SDS011;21042;47.620;12.188;2022-08-19T09:50:32;6.25;;;4.93;;
34828;SDS011;21042;47.620;12.188;2022-08-19T09:53:01;6.97;;;4.88;;
34828;SDS011;21042;47.620;12.188;2022-08-19T09:55:27;7.22;;;4.15;;
34828;SDS011;21042;47.620;12.188;2022-08-19T09:57:58;5.60;;;3.67;;
34828;SDS011;21042;47.620;12.188;2022-08-19T10:00:28;4.50;;;3.75;;
34828;SDS011;21042;47.620;12.188;2022-08-19T10:02:57;7.38;;;3.47;;
34828;SDS011;21042;47.620;12.188;2022-08-19T10:05:24;4.30;;;3.80;;
34828;SDS011;21042;47.620;12.188;2022-08-19T10:08:09;6.53;;;4.10;;
34828;SDS011;21042;47.620;12.188;2022-08-19T10:10:42;3.75;;;3.25;;
34828;SDS011;21042;47.620;12.188;2022-08-19T10:13:12;4.70;;;3.58;;
34828;SDS011;21042;47.620;12.188;2022-08-19T10:15:41;6.13;;;3.95;;
34828;SDS011;21042;47.620;12.188;2022-08-19T10:18:14;7.07;;;4.68;;
34828;SDS011;21042;47.620;12.188;2022-08-19T10:20:44;5.28;;;4.20;;
34828;SDS011;21042;47.620;12.188;2022-08-19T10:23:18;5.55;;;4.28;;
34828;SDS011;21042;47.620;12.188;2022-08-19T10:25:46;5.95;;;4.63;;
34828;SDS011;21042;47.620;12.188;2022-08-19T10:28:14;7.15;;;5.05;;
34828;SDS011;21042;47.620;12.188;2022-08-19T10:30:44;5.65;;;4.68;;
34828;SDS011;21042;47.620;12.188;2022-08-19T10:33:11;4.95;;;3.70;;
34828;SDS011;21042;47.620;12.188;2022-08-19T10:35:38;6.03;;;4.82;;
34828;SDS011;21042;47.620;12.188;2022-08-19T10:38:22;5.35;;;4.05;;
34828;SDS011;21042;47.620;12.188;2022-08-19T10:40:57;8.27;;;4.60;;
34828;SDS011;21042;47.620;12.188;2022-08-19T10:45:51;8.23;;;5.35;;
34828;SDS011;21042;47.620;12.188;2022-08-19T10:48:22;6.85;;;5.70;;
34828;SDS011;21042;47.620;12.188;2022-08-19T10:50:49;7.32;;;5.38;;
34828;SDS011;21042;47.620;12.188;2022-08-19T10:53:34;8.93;;;4.63;;
34828;SDS011;21042;47.620;12.188;2022-08-19T10:56:01;7.45;;;4.95;;
34828;SDS011;21042;47.620;12.188;2022-08-19T10:58:47;7.22;;;4.75;;
34828;SDS011;21042;47.620;12.188;2022-08-19T11:01:15;6.22;;;4.65;;
34828;SDS011;21042;47.620;12.188;2022-08-19T11:03:41;5.07;;;4.57;;
34828;SDS011;21042;47.620;12.188;2022-08-19T11:06:08;8.15;;;4.32;;
34828;SDS011;21042;47.620;12.188;2022-08-19T11:08:35;7.45;;;4.78;;
34828;SDS011;21042;47.620;12.188;2022-08-19T11:11:04;8.60;;;5.18;;
34828;SDS011;21042;47.620;12.188;2022-08-19T11:13:33;6.32;;;4.65;;
34828;SDS011;21042;47.620;12.188;2022-08-19T11:16:13;5.78;;;4.55;;
34828;SDS011;21042;47.620;12.188;2022-08-19T11:18:42;4.90;;;4.13;;
34828;SDS011;21042;47.620;12.188;2022-08-19T11:21:16;5.68;;;5.03;;
34828;SDS011;21042;47.620;12.188;2022-08-19T11:23:43;7.13;;;5.43;;
34828;SDS011;21042;47.620;12.188;2022-08-19T11:26:11;6.03;;;4.75;;
34828;SDS011;21042;47.620;12.188;2022-08-19T11:31:11;6.18;;;4.72;;
34828;SDS011;21042;47.620;12.188;2022-08-19T11:33:43;6.50;;;5.72;;
34828;SDS011;21042;47.620;12.188;2022-08-19T11:36:12;6.38;;;4.57;;
34828;SDS011;21042;47.620;12.188;2022-08-19T11:38:40;7.10;;;4.78;;
34828;SDS011;21042;47.620;12.188;2022-08-19T11:41:07;7.82;;;3.95;;
34828;SDS011;21042;47.620;12.188;2022-08-19T11:43:34;7.80;;;4.65;;
34828;SDS011;21042;47.620;12.188;2022-08-19T11:46:03;11.35;;;4.53;;
34828;SDS011;21042;47.620;12.188;2022-08-19T11:48:33;6.18;;;3.92;;
34828;SDS011;21042;47.620;12.188;2022-08-19T11:51:02;4.68;;;3.38;;
34828;SDS011;21042;47.620;12.188;2022-08-19T11:53:32;4.15;;;3.63;;
34828;SDS011;21042;47.620;12.188;2022-08-19T11:56:00;8.55;;;4.38;;
34828;SDS011;21042;47.620;12.188;2022-08-19T11:58:27;4.60;;;3.63;;
34828;SDS011;21042;47.620;12.188;2022-08-19T12:00:55;7.70;;;5.10;;
34828;SDS011;21042;47.620;12.188;2022-08-19T12:03:22;8.57;;;4.97;;
34828;SDS011;21042;47.620;12.188;2022-08-19T12:05:49;10.18;;;5.90;;
34828;SDS011;21042;47.620;12.188;2022-08-19T12:08:17;7.97;;;5.68;;
34828;SDS011;21042;47.620;12.188;2022-08-19T12:10:45;6.13;;;4.72;;
34828;SDS011;21042;47.620;12.188;2022-08-19T12:13:12;5.22;;;4.00;;
34828;SDS011;21042;47.620;12.188;2022-08-19T12:15:45;8.30;;;5.40;;
34828;SDS011;21042;47.620;12.188;2022-08-19T12:18:13;5.72;;;4.15;;
34828;SDS011;21042;47.620;12.188;2022-08-19T12:20:41;9.75;;;5.25;;
34828;SDS011;21042;47.620;12.188;2022-08-19T12:23:09;7.68;;;4.80;;
34828;SDS011;21042;47.620;12.188;2022-08-19T12:25:37;5.88;;;4.07;;
34828;SDS011;21042;47.620;12.188;2022-08-19T12:28:09;3.85;;;3.25;;
34828;SDS011;21042;47.620;12.188;2022-08-19T12:30:37;3.95;;;3.15;;
34828;SDS011;21042;47.620;12.188;2022-08-19T12:33:04;5.43;;;3.47;;
34828;SDS011;21042;47.620;12.188;2022-08-19T12:35:31;5.97;;;4.65;;
34828;SDS011;21042;47.620;12.188;2022-08-19T12:37:58;5.53;;;4.43;;
34828;SDS011;21042;47.620;12.188;2022-08-19T12:40:25;10.15;;;5.22;;
34828;SDS011;21042;47.620;12.188;2022-08-19T12:42:53;6.47;;;5.00;;
34828;SDS011;21042;47.620;12.188;2022-08-19T12:45:20;6.47;;;4.70;;
34828;SDS011;21042;47.620;12.188;2022-08-19T12:47:47;5.68;;;4.57;;
34828;SDS011;21042;47.620;12.188;2022-08-19T12:50:15;8.07;;;4.38;;
34828;SDS011;21042;47.620;12.188;2022-08-19T12:55:09;8.07;;;6.00;;
34828;SDS011;21042;47.620;12.188;2022-08-19T12:57:37;9.52;;;5.00;;
34828;SDS011;21042;47.620;12.188;2022-08-19T13:00:06;7.50;;;5.18;;
34828;SDS011;21042;47.620;12.188;2022-08-19T13:02:40;7.63;;;4.80;;
34828;SDS011;21042;47.620;12.188;2022-08-19T13:05:11;5.13;;;4.13;;
34828;SDS011;21042;47.620;12.188;2022-08-19T13:07:40;6.53;;;4.35;;
34828;SDS011;21042;47.620;12.188;2022-08-19T13:10:10;5.40;;;4.88;;
34828;SDS011;21042;47.620;12.188;2022-08-19T13:12:39;6.63;;;4.60;;
34828;SDS011;21042;47.620;12.188;2022-08-19T13:15:07;7.32;;;4.57;;
34828;SDS011;21042;47.620;12.188;2022-08-19T13:17:36;5.95;;;4.30;;
34828;SDS011;21042;47.620;12.188;2022-08-19T13:20:04;5.50;;;4.00;;
34828;SDS011;21042;47.620;12.188;2022-08-19T13:22:34;7.03;;;3.92;;
34828;SDS011;21042;47.620;12.188;2022-08-19T13:25:02;5.57;;;4.47;;
34828;SDS011;21042;47.620;12.188;2022-08-19T13:27:31;5.13;;;4.15;;
34828;SDS011;21042;47.620;12.188;2022-08-19T13:29:59;5.43;;;4.18;;
34828;SDS011;21042;47.620;12.188;2022-08-19T13:32:44;6.43;;;4.15;;
34828;SDS011;21042;47.620;12.188;2022-08-19T13:35:30;6.50;;;3.58;;
34828;SDS011;21042;47.620;12.188;2022-08-19T13:37:56;6.80;;;4.45;;
34828;SDS011;21042;47.620;12.188;2022-08-19T13:40:24;7.15;;;4.30;;
34828;SDS011;21042;47.620;12.188;2022-08-19T13:42:53;5.93;;;3.97;;
34828;SDS011;21042;47.620;12.188;2022-08-19T13:45:21;4.68;;;3.60;;
34828;SDS011;21042;47.620;12.188;2022-08-19T13:47:51;5.30;;;3.67;;
34828;SDS011;21042;47.620;12.188;2022-08-19T13:50:29;6.10;;;3.55;;
34828;SDS011;21042;47.620;12.188;2022-08-19T13:52:59;4.90;;;3.15;;
34828;SDS011;21042;47.620;12.188;2022-08-19T13:55:27;3.95;;;3.03;;
34828;SDS011;21042;47.620;12.188;2022-08-19T13:57:55;3.95;;;2.90;;
34828;SDS011;21042;47.620;12.188;2022-08-19T14:00:24;4.95;;;3.42;;
34828;SDS011;21042;47.620;12.188;2022-08-19T14:02:53;4.03;;;3.08;;
34828;SDS011;21042;47.620;12.188;2022-08-19T14:05:22;4.80;;;3.40;;
34828;SDS011;21042;47.620;12.188;2022-08-19T14:07:49;3.97;;;3.38;;
34828;SDS011;21042;47.620;12.188;2022-08-19T14:10:16;5.00;;;3.10;;
34828;SDS011;21042;47.620;12.188;2022-08-19T14:12:44;4.85;;;2.70;;
34828;SDS011;21042;47.620;12.188;2022-08-19T14:15:11;3.15;;;2.80;;
34828;SDS011;21042;47.620;12.188;2022-08-19T14:17:40;3.20;;;2.70;;
34828;SDS011;21042;47.620;12.188;2022-08-19T14:20:08;4.15;;;3.35;;
34828;SDS011;21042;47.620;12.188;2022-08-19T14:22:43;3.92;;;3.20;;
34828;SDS011;21042;47.620;12.188;2022-08-19T14:25:13;3.28;;;2.75;;
34828;SDS011;21042;47.620;12.188;2022-08-19T14:27:51;5.68;;;3.17;;
34828;SDS011;21042;47.620;12.188;2022-08-19T14:30:21;5.78;;;3.38;;
34828;SDS011;21042;47.620;12.188;2022-08-19T14:32:51;3.85;;;3.10;;
34828;SDS011;21042;47.620;12.188;2022-08-19T14:35:18;6.68;;;3.25;;
34828;SDS011;21042;47.620;12.188;2022-08-19T14:37:45;4.93;;;2.80;;
34828;SDS011;21042;47.620;12.188;2022-08-19T14:42:41;5.10;;;2.60;;
34828;SDS011;21042;47.620;12.188;2022-08-19T14:45:09;3.40;;;2.75;;
34828;SDS011;21042;47.620;12.188;2022-08-19T14:47:37;4.13;;;2.78;;
34828;SDS011;21042;47.620;12.188;2022-08-19T14:50:08;4.55;;;3.08;;
34828;SDS011;21042;47.620;12.188;2022-08-19T14:52:44;3.17;;;2.70;;
34828;SDS011;21042;47.620;12.188;2022-08-19T14:55:13;2.80;;;2.20;;
34828;SDS011;21042;47.620;12.188;2022-08-19T14:57:41;1.75;;;1.10;;
34828;SDS011;21042;47.620;12.188;2022-08-19T15:00:09;1.33;;;0.93;;
34828;SDS011;21042;47.620;12.188;2022-08-19T15:02:40;1.60;;;1.23;;
34828;SDS011;21042;47.620;12.188;2022-08-19T15:05:08;1.77;;;1.10;;
34828;SDS011;21042;47.620;12.188;2022-08-19T15:07:35;4.20;;;1.67;;
34828;SDS011;21042;47.620;12.188;2022-08-19T15:10:03;2.97;;;1.20;;
34828;SDS011;21042;47.620;12.188;2022-08-19T15:12:36;5.00;;;1.00;;
34828;SDS011;21042;47.620;12.188;2022-08-19T15:15:13;9.35;;;1.52;;
34828;SDS011;21042;47.620;12.188;2022-08-19T15:17:40;4.28;;;0.88;;
34828;SDS011;21042;47.620;12.188;2022-08-19T15:20:16;4.03;;;1.08;;
34828;SDS011;21042;47.620;12.188;2022-08-19T15:22:45;2.92;;;0.80;;
34828;SDS011;21042;47.620;12.188;2022-08-19T15:25:13;3.45;;;0.90;;
34828;SDS011;21042;47.620;12.188;2022-08-19T15:27:42;4.47;;;0.82;;